Time;durP1;ratioP1;P1;durP2;ratioP2;P2;SDS_P1;SDS_P2;PMS_P1;PMS_P2;Temp;Humidity;BMP_temperature;BMP_pressure;BME280_temperature;BME280_humidity;BME280_pressure;Samples;Min_cycle;Max_cycle;Signal;HPM_P1;HPM_P2
2022/03/18 00:01:21;;;;;;;31.67;6.53;;;2.70;99.90;;;;;;4913649;29;20439;-47
2022/03/18 00:03:47;;;;;;;26.07;5.87;;;2.70;99.90;;;;;;4906631;29;20931;-46
2022/03/18 00:06:16;;;;;;;30.90;5.90;;;2.60;99.90;;;;;;4914710;29;20184;-47
2022/03/18 00:08:42;;;;;;;24.37;6.80;;;2.50;99.90;;;;;;4913637;29;20545;-47
2022/03/18 00:11:08;;;;;;;25.90;6.93;;;2.40;99.90;;;;;;4911821;29;20450;-47
2022/03/18 00:13:33;;;;;;;24.10;7.23;;;2.30;99.90;;;;;;4896921;29;21030;-46
2022/03/18 00:16:00;;;;;;;28.73;8.00;;;2.20;99.90;;;;;;4913003;29;20443;-47
2022/03/18 00:18:25;;;;;;;24.97;7.17;;;2.20;99.90;;;;;;4914302;29;20191;-50
2022/03/18 00:20:51;;;;;;;23.53;6.83;;;2.00;99.90;;;;;;4914567;29;20917;-47
2022/03/18 00:23:17;;;;;;;27.83;6.43;;;2.00;99.90;;;;;;4913275;29;20187;-47
2022/03/18 00:25:42;;;;;;;14.77;6.40;;;1.90;99.90;;;;;;4907910;29;20202;-47
2022/03/18 00:28:08;;;;;;;26.67;6.03;;;1.90;99.90;;;;;;4911820;29;20187;-47
2022/03/18 00:30:34;;;;;;;29.67;6.67;;;1.80;99.90;;;;;;4914709;29;20191;-50
2022/03/18 00:32:59;;;;;;;20.73;6.33;;;1.80;99.90;;;;;;4896653;29;20198;-49
2022/03/18 00:35:25;;;;;;;13.07;5.67;;;1.80;99.90;;;;;;4912984;29;20549;-46
2022/03/18 00:37:50;;;;;;;25.63;5.77;;;1.70;99.90;;;;;;4912683;29;20564;-47
2022/03/18 00:40:16;;;;;;;20.87;5.70;;;1.70;99.90;;;;;;4913628;29;20667;-47
2022/03/18 00:42:41;;;;;;;30.30;6.60;;;1.70;99.90;;;;;;4914359;29;20218;-49
2022/03/18 00:45:07;;;;;;;18.83;5.93;;;1.70;99.90;;;;;;4912200;29;20195;-48
2022/03/18 00:53:02;;;;;;;19.47;5.87;;;1.50;99.90;;;;;;4912884;29;20445;-47
2022/03/18 00:55:27;;;;;;;23.93;6.63;;;1.50;99.90;;;;;;4912667;29;20455;-46
2022/03/18 00:57:53;;;;;;;16.73;5.77;;;1.40;99.90;;;;;;4912718;29;20202;-46
2022/03/18 01:00:18;;;;;;;19.90;7.23;;;1.40;99.90;;;;;;4908649;29;20637;-47
2022/03/18 01:02:44;;;;;;;29.63;7.20;;;1.40;99.90;;;;;;4896149;29;20203;-46
2022/03/18 01:05:09;;;;;;;20.33;7.23;;;1.40;99.90;;;;;;4912153;29;20681;-46
2022/03/18 01:07:35;;;;;;;22.90;6.33;;;1.40;99.90;;;;;;4911050;29;20203;-47
2022/03/18 01:10:00;;;;;;;24.37;7.03;;;1.40;99.90;;;;;;4909388;29;20217;-47
2022/03/18 01:12:26;;;;;;;25.67;7.27;;;1.40;99.90;;;;;;4905221;29;20566;-47
2022/03/18 01:14:52;;;;;;;31.53;7.07;;;1.40;99.90;;;;;;4910264;29;20571;-46
2022/03/18 01:17:18;;;;;;;28.37;7.20;;;1.40;99.90;;;;;;4912905;29;20269;-46
2022/03/18 01:19:44;;;;;;;30.73;7.33;;;1.50;99.90;;;;;;4912656;29;21050;-46
2022/03/18 01:22:10;;;;;;;23.83;6.40;;;1.50;99.90;;;;;;4913773;29;20187;-47
2022/03/18 01:24:37;;;;;;;28.53;6.87;;;1.60;99.90;;;;;;4913936;29;20954;-47
2022/03/18 01:27:04;;;;;;;27.00;6.73;;;1.60;99.90;;;;;;4913834;29;20199;-46
2022/03/18 01:29:30;;;;;;;28.43;8.13;;;1.70;99.90;;;;;;4911573;29;20483;-47
2022/03/18 01:31:55;;;;;;;26.67;6.30;;;1.70;99.90;;;;;;4909393;29;20513;-45
2022/03/18 01:34:21;;;;;;;26.93;7.03;;;1.80;99.90;;;;;;4913795;29;20194;-45
2022/03/18 01:36:47;;;;;;;30.30;7.60;;;1.80;99.90;;;;;;4913815;29;20187;-44
2022/03/18 01:39:13;;;;;;;43.80;7.50;;;1.90;99.90;;;;;;4913383;29;20186;-46
2022/03/18 01:41:39;;;;;;;42.70;6.87;;;1.90;99.90;;;;;;4914046;29;20431;-44
2022/03/18 01:44:10;;;;;;;40.37;7.80;;;1.90;99.90;;;;;;4913881;29;20194;-43
2022/03/18 01:46:37;;;;;;;34.67;8.27;;;2.00;99.90;;;;;;4910783;29;20462;-45
2022/03/18 01:49:06;;;;;;;26.20;7.23;;;2.10;99.90;;;;;;4913446;29;20471;-44
2022/03/18 01:51:33;;;;;;;29.43;7.77;;;2.10;99.90;;;;;;4913143;29;20466;-44
2022/03/18 01:56:43;;;;;;;36.53;7.80;;;2.20;99.90;;;;;;4913838;29;21014;-43
2022/03/18 01:59:13;;;;;;;21.17;7.23;;;2.20;99.90;;;;;;4914107;29;20447;-44
2022/03/18 02:01:39;;;;;;;26.60;7.50;;;2.20;99.90;;;;;;4909537;29;20664;-47
2022/03/18 02:04:05;;;;;;;30.23;7.43;;;2.20;99.90;;;;;;4915766;29;20513;-47
2022/03/18 02:06:31;;;;;;;29.43;10.30;;;2.20;99.90;;;;;;4895874;29;20285;-44
2022/03/18 02:08:56;;;;;;;31.60;8.60;;;2.20;99.90;;;;;;4913732;29;20285;-44
2022/03/18 02:11:23;;;;;;;25.73;7.13;;;2.20;99.90;;;;;;4912711;29;20198;-44
2022/03/18 02:13:57;;;;;;;40.07;7.37;;;2.30;99.90;;;;;;4912993;29;20589;-44
2022/03/18 02:16:23;;;;;;;30.37;6.70;;;2.20;99.90;;;;;;4913193;29;20777;-44
2022/03/18 02:18:48;;;;;;;22.53;6.63;;;2.10;99.90;;;;;;4909097;29;20460;-44
2022/03/18 02:21:14;;;;;;;24.73;7.70;;;2.10;99.90;;;;;;4912311;29;20206;-44
2022/03/18 02:23:42;;;;;;;25.70;7.10;;;2.00;99.90;;;;;;4913444;29;20276;-44
2022/03/18 02:26:07;;;;;;;30.60;6.90;;;2.00;99.90;;;;;;4915085;29;20470;-44
2022/03/18 02:28:33;;;;;;;28.30;7.33;;;2.00;99.90;;;;;;4913128;29;20502;-43
2022/03/18 02:30:58;;;;;;;24.53;6.43;;;2.00;99.90;;;;;;4913004;29;20894;-44
2022/03/18 02:33:24;;;;;;;16.67;6.80;;;2.00;99.90;;;;;;4896370;29;20194;-44
2022/03/18 02:35:55;;;;;;;23.73;6.83;;;2.00;99.90;;;;;;4909709;29;20249;-44
2022/03/18 02:38:21;;;;;;;23.10;6.13;;;2.00;99.90;;;;;;4913095;29;20175;-44
2022/03/18 02:40:47;;;;;;;32.27;6.60;;;1.90;99.90;;;;;;4912555;29;20923;-47
2022/03/18 02:43:12;;;;;;;29.43;7.07;;;1.90;99.90;;;;;;4912525;29;20203;-47
2022/03/18 02:45:38;;;;;;;23.93;6.90;;;1.80;99.90;;;;;;4905394;29;20525;-47
2022/03/18 02:48:04;;;;;;;23.13;7.57;;;1.80;99.90;;;;;;4914295;29;20981;-47
2022/03/18 02:50:29;;;;;;;27.97;7.50;;;1.70;99.90;;;;;;4914804;29;20225;-47
2022/03/18 02:52:55;;;;;;;28.93;7.60;;;1.70;99.90;;;;;;4911860;29;20624;-47
2022/03/18 02:55:21;;;;;;;23.13;8.13;;;1.80;99.90;;;;;;4917035;29;20198;-46
2022/03/18 02:57:47;;;;;;;25.77;8.33;;;1.90;99.90;;;;;;4916433;29;20223;-47
2022/03/18 03:00:13;;;;;;;16.80;6.87;;;1.90;99.90;;;;;;4917527;29;20474;-47
2022/03/18 03:02:38;;;;;;;20.43;7.00;;;1.80;99.90;;;;;;4916514;29;20646;-47
2022/03/18 03:08:04;;;;;;;25.00;8.10;;;1.90;99.90;;;;;;4862207;29;20280;-47
2022/03/18 03:10:32;;;;;;;25.73;8.07;;;1.90;99.90;;;;;;4905064;29;20888;-47
2022/03/18 03:13:01;;;;;;;26.53;8.70;;;1.90;99.90;;;;;;4916619;29;20238;-47
2022/03/18 03:15:27;;;;;;;24.23;8.80;;;1.80;99.90;;;;;;4917013;29;20433;-47
2022/03/18 03:17:53;;;;;;;22.27;9.07;;;1.80;99.90;;;;;;4914219;29;20450;-48
2022/03/18 03:20:18;;;;;;;36.40;10.30;;;1.80;99.90;;;;;;4921298;29;20222;-46
2022/03/18 03:22:44;;;;;;;32.03;9.23;;;1.90;99.90;;;;;;4916471;29;20916;-47
2022/03/18 03:25:10;;;;;;;30.87;8.90;;;1.90;99.90;;;;;;4916427;29;20274;-47
2022/03/18 03:27:35;;;;;;;28.87;8.50;;;1.90;99.90;;;;;;4916032;29;20660;-47
2022/03/18 03:30:05;;;;;;;23.13;8.67;;;1.80;99.90;;;;;;4916333;29;20269;-47
2022/03/18 03:32:31;;;;;;;27.13;7.73;;;1.80;99.90;;;;;;4908899;29;20226;-47
2022/03/18 03:34:57;;;;;;;20.93;8.80;;;1.70;99.90;;;;;;4898899;29;20956;-47
2022/03/18 03:37:25;;;;;;;23.90;8.70;;;1.60;99.90;;;;;;4916209;29;20179;-46
2022/03/18 03:39:50;;;;;;;26.90;9.80;;;1.60;99.90;;;;;;4915833;29;20479;-47
2022/03/18 03:42:17;;;;;;;29.63;10.50;;;1.70;99.90;;;;;;4916096;29;21000;-47
2022/03/18 03:44:43;;;;;;;23.50;9.50;;;1.70;99.90;;;;;;4915948;29;20266;-48
2022/03/18 03:47:08;;;;;;;28.43;9.30;;;1.70;99.90;;;;;;4916023;29;20423;-47
2022/03/18 03:49:34;;;;;;;28.87;9.70;;;1.70;99.90;;;;;;4915304;29;20250;-47
2022/03/18 03:52:00;;;;;;;26.87;9.30;;;1.60;99.90;;;;;;4915962;29;20515;-47
2022/03/18 03:54:27;;;;;;;35.40;10.93;;;1.60;99.90;;;;;;4916162;29;20195;-47
2022/03/18 03:56:54;;;;;;;30.50;9.80;;;1.50;99.90;;;;;;4913594;29;20254;-47
2022/03/18 03:59:20;;;;;;;20.80;10.20;;;1.60;99.90;;;;;;4915506;29;20482;-47
2022/03/18 04:01:45;;;;;;;27.63;9.17;;;1.60;99.90;;;;;;4915369;29;20498;-46
2022/03/18 04:04:11;;;;;;;29.00;9.90;;;1.60;99.90;;;;;;4915653;29;20913;-47
2022/03/18 04:06:37;;;;;;;28.60;8.90;;;1.50;99.90;;;;;;4915750;29;20183;-47
2022/03/18 04:09:03;;;;;;;35.07;9.97;;;1.50;99.90;;;;;;4915646;29;20187;-46
2022/03/18 04:11:29;;;;;;;31.23;9.17;;;1.40;99.90;;;;;;4914679;29;20446;-47
2022/03/18 04:13:55;;;;;;;18.03;10.47;;;1.40;99.90;;;;;;4915114;29;20673;-47
2022/03/18 04:16:21;;;;;;;18.10;9.20;;;1.30;99.90;;;;;;4926309;29;20191;-48
2022/03/18 04:18:47;;;;;;;23.53;8.93;;;1.30;99.90;;;;;;4915026;29;20191;-47
2022/03/18 04:21:13;;;;;;;30.50;10.13;;;1.20;99.90;;;;;;4915464;29;20427;-47
2022/03/18 04:23:39;;;;;;;31.87;9.13;;;1.20;99.90;;;;;;4914704;29;20565;-47
2022/03/18 04:26:05;;;;;;;24.10;8.40;;;1.20;99.90;;;;;;4915385;29;21336;-47
2022/03/18 04:28:31;;;;;;;25.03;9.70;;;1.20;99.90;;;;;;4914652;29;20442;-47
2022/03/18 04:30:56;;;;;;;20.33;9.27;;;1.20;99.90;;;;;;4911766;29;20693;-47
2022/03/18 04:33:22;;;;;;;21.90;9.20;;;1.10;99.90;;;;;;4914945;29;20238;-51
2022/03/18 04:35:47;;;;;;;43.27;9.27;;;1.10;99.90;;;;;;4898207;29;20187;-47
2022/03/18 04:38:13;;;;;;;22.50;9.60;;;1.10;99.90;;;;;;4914985;29;20187;-48
2022/03/18 04:40:38;;;;;;;18.77;8.70;;;1.10;99.90;;;;;;4915196;29;20546;-47
2022/03/18 04:43:04;;;;;;;30.53;9.80;;;1.10;99.90;;;;;;4914835;29;20198;-46
2022/03/18 04:45:30;;;;;;;30.17;9.47;;;1.10;99.90;;;;;;4915345;29;20187;-47
2022/03/18 04:47:56;;;;;;;26.73;9.47;;;1.10;99.90;;;;;;4914627;29;20454;-47
2022/03/18 04:50:21;;;;;;;23.00;10.00;;;1.10;99.90;;;;;;4914621;29;20187;-47
2022/03/18 04:52:47;;;;;;;31.00;10.60;;;1.00;99.90;;;;;;4914627;29;20709;-47
2022/03/18 04:55:12;;;;;;;23.23;9.57;;;1.00;99.90;;;;;;4898249;29;20183;-47
2022/03/18 04:57:38;;;;;;;27.03;9.90;;;1.00;99.90;;;;;;4914757;29;20239;-51
2022/03/18 05:00:05;;;;;;;25.57;10.40;;;1.00;99.90;;;;;;4914441;29;20223;-47
2022/03/18 05:02:30;;;;;;;29.73;10.63;;;1.00;99.90;;;;;;4914194;29;20187;-47
2022/03/18 05:04:56;;;;;;;26.23;10.30;;;1.00;99.90;;;;;;4914474;29;20438;-47
2022/03/18 05:07:22;;;;;;;26.60;11.20;;;1.00;99.90;;;;;;4914571;29;20515;-47
2022/03/18 05:09:48;;;;;;;29.50;10.60;;;1.00;99.90;;;;;;4913960;29;20446;-47
2022/03/18 05:12:16;;;;;;;23.23;11.00;;;1.00;99.90;;;;;;4914116;29;20320;-47
2022/03/18 05:14:42;;;;;;;25.50;11.00;;;0.90;99.90;;;;;;4912865;29;20447;-46
2022/03/18 05:17:09;;;;;;;38.00;10.90;;;0.90;99.90;;;;;;4914475;29;20528;-44
2022/03/18 05:19:36;;;;;;;30.20;11.10;;;1.00;99.90;;;;;;4896895;29;20755;-44
2022/03/18 05:22:02;;;;;;;25.57;11.90;;;1.00;99.90;;;;;;4914366;29;20466;-44
2022/03/18 05:24:28;;;;;;;32.43;11.87;;;1.00;99.90;;;;;;4914169;29;20462;-44
2022/03/18 05:26:54;;;;;;;23.60;10.30;;;1.00;99.90;;;;;;4914097;29;20470;-44
2022/03/18 05:29:20;;;;;;;32.47;11.77;;;1.10;99.90;;;;;;4914128;29;20190;-46
2022/03/18 05:31:46;;;;;;;33.67;11.40;;;1.10;99.90;;;;;;4913617;29;20443;-45
2022/03/18 05:34:12;;;;;;;21.57;11.00;;;1.20;99.90;;;;;;4914454;29;20430;-44
2022/03/18 05:36:39;;;;;;;35.80;12.90;;;1.20;99.90;;;;;;4913967;29;20550;-45
2022/03/18 05:39:04;;;;;;;26.77;11.47;;;1.20;99.90;;;;;;4915686;29;20509;-44
2022/03/18 05:41:31;;;;;;;29.03;11.77;;;1.20;99.90;;;;;;4896821;29;20553;-45
2022/03/18 05:43:57;;;;;;;28.33;11.20;;;1.10;99.90;;;;;;4913921;29;20231;-44
2022/03/18 05:46:23;;;;;;;24.23;12.30;;;1.20;99.90;;;;;;4913517;29;20828;-44
2022/03/18 05:48:49;;;;;;;36.50;13.70;;;1.30;99.90;;;;;;4909178;29;20451;-44
2022/03/18 05:51:14;;;;;;;29.47;12.80;;;1.40;99.90;;;;;;4913724;29;20545;-44
2022/03/18 05:53:40;;;;;;;50.27;14.03;;;1.60;99.90;;;;;;4913407;29;20202;-44
2022/03/18 05:58:50;;;;;;;32.50;12.43;;;1.90;99.90;;;;;;4908637;29;20222;-44
2022/03/18 06:01:16;;;;;;;30.70;13.70;;;2.10;99.90;;;;;;4896841;29;20470;-43
2022/03/18 06:03:42;;;;;;;30.23;13.90;;;2.20;99.90;;;;;;4913103;29;20813;-44
2022/03/18 06:06:08;;;;;;;40.63;14.30;;;2.30;99.90;;;;;;4913148;29;20183;-44
2022/03/18 06:14:02;;;;;;;32.90;13.67;;;2.50;99.90;;;;;;4903059;29;20781;-44
2022/03/18 06:16:27;;;;;;;27.00;12.40;;;2.60;99.90;;;;;;4913151;29;20467;-44
2022/03/18 06:18:54;;;;;;;29.70;15.00;;;2.60;99.90;;;;;;4913176;29;20462;-43
2022/03/18 06:21:21;;;;;;;35.10;13.77;;;2.70;99.90;;;;;;4913351;29;20700;-44
2022/03/18 06:23:47;;;;;;;27.77;13.17;;;2.80;99.90;;;;;;4903016;29;20450;-43
2022/03/18 06:26:12;;;;;;;31.93;13.93;;;2.90;99.90;;;;;;4915500;29;20929;-44
2022/03/18 06:28:38;;;;;;;29.63;13.07;;;3.00;99.90;;;;;;4916781;29;20356;-44
2022/03/18 06:31:06;;;;;;;33.33;13.20;;;3.00;99.90;;;;;;4916888;29;20179;-44
2022/03/18 06:33:32;;;;;;;29.47;12.57;;;3.10;99.90;;;;;;4916737;29;20179;-44
2022/03/18 06:35:57;;;;;;;32.90;11.80;;;3.20;99.90;;;;;;4900112;29;20864;-44
2022/03/18 06:38:23;;;;;;;36.63;13.47;;;3.30;99.90;;;;;;4916425;29;20637;-44
2022/03/18 06:40:49;;;;;;;23.27;11.37;;;3.40;99.90;;;;;;4911633;29;20228;-44
2022/03/18 06:43:15;;;;;;;17.10;10.90;;;3.50;99.90;;;;;;4916948;29;20191;-44
2022/03/18 06:45:41;;;;;;;29.80;10.73;;;3.60;99.90;;;;;;4899711;29;20453;-43
2022/03/18 06:48:06;;;;;;;29.50;11.50;;;3.70;99.90;;;;;;4917024;29;20199;-43
2022/03/18 06:50:32;;;;;;;21.73;10.73;;;3.70;99.90;;;;;;4900244;29;20864;-44
2022/03/18 06:52:58;;;;;;;20.77;10.80;;;3.80;99.90;;;;;;4916986;29;20213;-44
2022/03/18 06:55:23;;;;;;;21.70;9.87;;;3.90;99.90;;;;;;4915991;29;20195;-44
2022/03/18 06:57:49;;;;;;;28.83;10.40;;;3.90;99.90;;;;;;4916609;29;20198;-47
2022/03/18 07:00:15;;;;;;;26.20;9.57;;;4.00;99.90;;;;;;4899365;29;20210;-47
2022/03/18 07:02:40;;;;;;;26.50;10.83;;;4.00;99.90;;;;;;4916946;29;20184;-47
2022/03/18 07:05:06;;;;;;;25.40;10.37;;;4.10;99.90;;;;;;4916502;29;20190;-47
2022/03/18 07:07:32;;;;;;;22.60;8.93;;;4.00;99.90;;;;;;4916277;29;20657;-47
2022/03/18 07:09:57;;;;;;;17.20;9.93;;;4.10;99.90;;;;;;4915743;29;20944;-48
2022/03/18 07:12:23;;;;;;;27.17;10.70;;;4.20;99.90;;;;;;4914830;29;20195;-47
2022/03/18 07:14:49;;;;;;;21.43;10.20;;;4.30;99.90;;;;;;4916728;29;20558;-47
2022/03/18 07:19:59;;;;;;;22.33;10.13;;;4.50;99.90;;;;;;4920564;29;21392;-48
2022/03/18 07:22:25;;;;;;;19.43;8.33;;;4.50;99.90;;;;;;4912104;29;20529;-48
2022/03/18 07:24:50;;;;;;;18.67;8.73;;;4.60;99.90;;;;;;4912681;29;20206;-50
2022/03/18 07:27:16;;;;;;;32.40;9.97;;;4.70;99.90;;;;;;4915842;29;20443;-48
2022/03/18 07:29:42;;;;;;;16.00;8.63;;;4.70;99.90;;;;;;4915647;29;20191;-48
2022/03/18 07:32:08;;;;;;;21.60;9.07;;;4.80;99.90;;;;;;4915070;29;20211;-47
2022/03/18 07:34:33;;;;;;;30.07;9.10;;;4.90;99.90;;;;;;4916000;29;20434;-48
2022/03/18 07:36:59;;;;;;;21.00;8.97;;;5.20;99.90;;;;;;4913119;29;20202;-48
2022/03/18 07:39:25;;;;;;;14.80;7.70;;;5.50;99.90;;;;;;4906967;29;20207;-49
2022/03/18 07:41:50;;;;;;;22.53;8.27;;;5.60;99.90;;;;;;4892842;29;20541;-49
2022/03/18 07:44:16;;;;;;;18.57;8.17;;;5.70;90.60;;;;;;4898323;29;20195;-48
2022/03/18 07:46:42;;;;;;;21.30;8.23;;;5.70;99.90;;;;;;4914489;29;20627;-47
2022/03/18 07:49:09;;;;;;;14.03;7.90;;;5.80;1.00;;;;;;4913376;29;20320;-47
2022/03/18 07:51:34;;;;;;;19.37;7.90;;;5.90;1.00;;;;;;4898688;29;20223;-50
2022/03/18 07:54:00;;;;;;;19.10;8.77;;;5.80;1.00;;;;;;4914092;29;22466;-52
2022/03/18 07:56:25;;;;;;;22.87;9.10;;;5.90;1.00;;;;;;4914896;29;20321;-47
2022/03/18 07:58:51;;;;;;;17.30;8.80;;;5.90;1.00;;;;;;4911638;29;20330;-48
2022/03/18 08:01:16;;;;;;;23.67;9.23;;;5.90;1.00;;;;;;4915965;29;20191;-48
2022/03/18 08:03:42;;;;;;;18.43;8.67;;;5.90;1.00;;;;;;4915765;29;20253;-48
2022/03/18 08:06:08;;;;;;;18.93;8.47;;;5.90;1.00;;;;;;4897743;29;20246;-48
2022/03/18 08:08:33;;;;;;;18.53;9.00;;;6.00;1.00;;;;;;4915355;29;20215;-49
2022/03/18 08:11:00;;;;;;;23.70;10.20;;;6.10;1.00;;;;;;4915183;29;20680;-47
2022/03/18 08:13:25;;;;;;;20.33;7.90;;;6.50;1.00;;;;;;4914193;29;20191;-48
2022/03/18 08:15:51;;;;;;;21.50;9.30;;;6.80;1.00;;;;;;4914416;29;20442;-48
2022/03/18 08:18:18;;;;;;;26.30;9.83;;;7.00;1.00;;;;;;4912755;29;20175;-49
2022/03/18 08:20:44;;;;;;;19.83;8.30;;;7.70;1.00;;;;;;4912859;29;20249;-48
2022/03/18 08:23:14;;;;;;;16.20;8.90;;;8.40;99.90;;;;;;4915430;29;20471;-48
2022/03/18 08:25:40;;;;;;;22.53;10.13;;;8.70;99.90;;;;;;4917396;29;20290;-48
2022/03/18 08:28:07;;;;;;;20.63;11.33;;;8.70;99.90;;;;;;4913421;29;20447;-47
2022/03/18 08:30:33;;;;;;;19.13;9.47;;;9.10;99.90;;;;;;4914308;29;20441;-48
2022/03/18 08:32:59;;;;;;;16.17;8.70;;;9.90;99.90;;;;;;4914904;29;20498;-48
2022/03/18 08:35:24;;;;;;;17.60;7.70;;;10.50;99.90;;;;;;4904704;29;20427;-49
2022/03/18 08:37:56;;;;;;;16.60;7.30;;;11.10;99.90;;;;;;4913491;29;20438;-49
2022/03/18 08:40:26;;;;;;;18.97;7.30;;;11.60;99.90;;;;;;4896790;29;20211;-49
2022/03/18 08:42:52;;;;;;;22.00;7.43;;;12.20;99.90;;;;;;4904573;29;20424;-48
2022/03/18 08:45:19;;;;;;;22.13;8.00;;;12.70;99.90;;;;;;4909054;29;20481;-48
2022/03/18 08:47:45;;;;;;;14.10;7.50;;;13.10;99.90;;;;;;4933276;29;20429;-48
2022/03/18 08:50:12;;;;;;;17.70;7.50;;;13.30;99.90;;;;;;4931015;29;20474;-48
2022/03/18 08:52:38;;;;;;;20.93;8.33;;;13.60;99.90;;;;;;4914930;29;20427;-48
2022/03/18 08:55:04;;;;;;;18.67;7.60;;;13.60;99.90;;;;;;4915486;29;20494;-47
2022/03/18 08:57:33;;;;;;;19.83;8.10;;;13.80;99.90;;;;;;4915064;29;20241;-48
2022/03/18 08:59:59;;;;;;;15.00;7.60;;;14.10;99.90;;;;;;4898882;29;20502;-49
2022/03/18 09:02:24;;;;;;;16.10;6.90;;;14.30;99.90;;;;;;4915152;29;21391;-47
2022/03/18 09:04:50;;;;;;;15.20;8.00;;;14.30;99.90;;;;;;4913608;29;20238;-48
2022/03/18 09:07:17;;;;;;;21.83;9.73;;;14.10;99.90;;;;;;4913793;29;20191;-48
2022/03/18 09:09:42;;;;;;;18.03;7.07;;;14.20;99.90;;;;;;4914993;29;20430;-47
2022/03/18 09:12:08;;;;;;;16.67;8.13;;;14.30;99.90;;;;;;4913233;29;20427;-47
2022/03/18 09:14:34;;;;;;;15.17;7.20;;;14.00;99.90;;;;;;4914217;29;20641;-47
2022/03/18 09:17:00;;;;;;;17.47;7.60;;;14.10;99.90;;;;;;4914305;29;20202;-47
2022/03/18 09:19:26;;;;;;;19.70;7.23;;;14.20;99.90;;;;;;4897262;29;20246;-49
2022/03/18 09:21:52;;;;;;;18.10;7.97;;;14.40;99.90;;;;;;4896798;29;20960;-48
2022/03/18 09:24:18;;;;;;;15.37;8.20;;;14.30;99.90;;;;;;4896043;29;20230;-48
2022/03/18 09:26:44;;;;;;;23.50;9.60;;;14.20;99.90;;;;;;4913698;29;20767;-48
2022/03/18 09:29:10;;;;;;;23.23;8.40;;;14.00;99.90;;;;;;4917454;29;20449;-48
2022/03/18 09:31:36;;;;;;;14.93;6.90;;;14.00;99.90;;;;;;4909568;29;20203;-49
2022/03/18 09:34:02;;;;;;;29.50;8.63;;;14.10;99.90;;;;;;4916467;29;20458;-48
2022/03/18 09:36:27;;;;;;;23.67;7.90;;;13.90;99.90;;;;;;4914586;29;20518;-48
2022/03/18 09:38:54;;;;;;;14.27;7.27;;;14.00;99.90;;;;;;4912462;29;20214;-48
2022/03/18 09:41:20;;;;;;;20.63;7.50;;;13.90;99.90;;;;;;4911013;29;20191;-48
2022/03/18 09:43:45;;;;;;;19.00;8.30;;;13.80;99.90;;;;;;4912577;29;20459;-48
2022/03/18 09:46:17;;;;;;;18.67;7.70;;;13.70;99.90;;;;;;4914330;29;20305;-48
2022/03/18 09:48:46;;;;;;;19.27;8.00;;;13.50;99.90;;;;;;4911543;29;20215;-49
2022/03/18 09:51:12;;;;;;;18.17;8.80;;;13.20;99.90;;;;;;4881779;29;20498;-48
2022/03/18 09:53:38;;;;;;;17.77;8.00;;;12.80;99.90;;;;;;4895915;29;20435;-48
2022/03/18 09:56:04;;;;;;;17.53;8.53;;;12.70;99.90;;;;;;4897644;29;20685;-48
2022/03/18 09:58:30;;;;;;;15.03;8.50;;;12.70;99.90;;;;;;4913580;29;20499;-48
2022/03/18 10:00:59;;;;;;;19.57;8.63;;;12.90;99.90;;;;;;4911333;29;20214;-48
2022/03/18 10:03:38;;;;;;;24.10;9.00;;;12.90;99.90;;;;;;4913896;29;20439;-49
2022/03/18 10:06:04;;;;;;;16.80;8.27;;;13.00;99.90;;;;;;4912032;29;20431;-47
2022/03/18 10:08:37;;;;;;;21.73;8.60;;;13.00;99.90;;;;;;4913914;29;20431;-47
2022/03/18 10:11:20;;;;;;;20.57;7.97;;;13.00;99.90;;;;;;4913783;29;20439;-47
2022/03/18 10:14:00;;;;;;;18.00;7.87;;;12.90;99.90;;;;;;4913249;29;20961;-47
2022/03/18 10:16:32;;;;;;;20.60;8.43;;;12.80;99.90;;;;;;4914787;29;20451;-47
2022/03/18 10:18:58;;;;;;;22.63;8.30;;;12.90;99.90;;;;;;4913402;29;20530;-46
2022/03/18 10:21:24;;;;;;;15.43;8.13;;;13.00;99.90;;;;;;4921220;29;20435;-48
2022/03/18 10:23:50;;;;;;;21.50;7.87;;;13.40;99.90;;;;;;4912401;29;20442;-48
2022/03/18 10:26:15;;;;;;;18.47;7.60;;;13.70;99.90;;;;;;4912771;29;20195;-48
2022/03/18 10:28:43;;;;;;;22.37;8.00;;;13.90;99.90;;;;;;4912722;29;20515;-48
2022/03/18 10:31:11;;;;;;;16.13;7.60;;;13.80;99.90;;;;;;4912607;29;20241;-50
2022/03/18 10:37:04;;;;;;;13.60;7.37;;;13.60;99.90;;;;;;4913125;29;20466;-50
2022/03/18 10:39:30;;;;;;;18.53;8.13;;;13.90;99.90;;;;;;4913244;29;20506;-48
2022/03/18 10:41:58;;;;;;;22.40;7.73;;;14.20;99.90;;;;;;4909247;29;20471;-48
2022/03/18 10:44:23;;;;;;;23.33;8.20;;;14.50;99.90;;;;;;4910389;29;20442;-48
2022/03/18 10:46:50;;;;;;;19.33;8.47;;;14.90;99.90;;;;;;4912948;29;20439;-49
2022/03/18 10:49:16;;;;;;;23.73;9.57;;;15.00;99.90;;;;;;4896197;29;20232;-47
2022/03/18 10:51:45;;;;;;;18.43;7.73;;;15.50;99.90;;;;;;4908257;29;20458;-47
2022/03/18 10:54:11;;;;;;;16.63;7.33;;;16.40;99.90;;;;;;4894690;29;20777;-47
2022/03/18 10:56:58;;;;;;;18.17;8.13;;;17.20;99.90;;;;;;4911617;29;20478;-47
2022/03/18 10:59:27;;;;;;;15.40;7.97;;;17.90;99.90;;;;;;4912056;29;20968;-46
2022/03/18 11:01:56;;;;;;;13.53;8.67;;;18.40;99.90;;;;;;4903121;29;20771;-48
2022/03/18 11:04:23;;;;;;;15.77;8.03;;;18.80;99.90;;;;;;4895199;29;20447;-48
2022/03/18 11:12:31;;;;;;;21.60;7.40;;;20.30;99.90;;;;;;4914656;29;20517;-46
2022/03/18 11:14:58;;;;;;;12.87;6.90;;;20.50;99.90;;;;;;4913745;29;20517;-47
2022/03/18 11:17:24;;;;;;;13.90;6.00;;;20.80;99.90;;;;;;4916245;29;20446;-48
2022/03/18 11:19:54;;;;;;;18.20;6.20;;;21.10;99.90;;;;;;4916405;29;20458;-48
2022/03/18 11:22:22;;;;;;;18.13;6.83;;;21.60;99.90;;;;;;4916184;29;20435;-48
2022/03/18 11:24:49;;;;;;;15.43;6.00;;;21.70;99.90;;;;;;4916247;29;20924;-47
2022/03/18 11:27:16;;;;;;;13.00;6.20;;;21.80;99.90;;;;;;4913204;29;20439;-47
2022/03/18 11:29:42;;;;;;;13.03;6.23;;;21.60;99.90;;;;;;4915811;29;20529;-48
2022/03/18 11:32:15;;;;;;;16.67;8.53;;;21.60;99.90;;;;;;4915851;29;21050;-47
2022/03/18 11:34:58;;;;;;;15.77;7.43;;;21.50;99.90;;;;;;4915694;29;21103;-47
2022/03/18 11:37:29;;;;;;;14.50;5.90;;;21.70;99.90;;;;;;4901748;29;20454;-47
2022/03/18 11:40:19;;;;;;;12.23;6.20;;;22.00;99.90;;;;;;4912253;29;21517;-47
2022/03/18 11:42:46;;;;;;;15.33;5.67;;;22.20;99.90;;;;;;4913739;29;20956;-47
2022/03/18 11:45:37;;;;;;;10.63;4.80;;;22.50;99.90;;;;;;4916063;29;20432;-47
2022/03/18 11:48:35;;;;;;;13.07;5.30;;;22.60;99.90;;;;;;4915924;29;20426;-47
2022/03/18 11:51:29;;;;;;;11.60;4.87;;;22.70;99.90;;;;;;4915614;29;20467;-47
2022/03/18 11:54:12;;;;;;;11.73;5.20;;;22.70;99.90;;;;;;4913130;29;20430;-47
2022/03/18 11:56:52;;;;;;;12.60;6.83;;;22.80;99.90;;;;;;4912186;29;20262;-46
2022/03/18 11:59:24;;;;;;;8.10;4.10;;;22.90;99.90;;;;;;4913260;29;20504;-48
2022/03/18 12:02:03;;;;;;;8.03;4.83;;;22.90;99.90;;;;;;4915116;29;20463;-47
2022/03/18 12:04:34;;;;;;;10.10;4.87;;;23.00;99.90;;;;;;4914440;29;20435;-48
2022/03/18 12:07:27;;;;;;;15.57;5.57;;;22.90;99.90;;;;;;4915009;29;20431;-48
2022/03/18 12:10:00;;;;;;;15.87;5.57;;;23.00;99.90;;;;;;4912471;29;20419;-47
2022/03/18 12:12:39;;;;;;;9.67;4.83;;;23.00;99.90;;;;;;4914886;29;20555;-48
2022/03/18 12:15:25;;;;;;;12.57;6.30;;;22.80;99.90;;;;;;4909430;29;20477;-48
2022/03/18 12:17:53;;;;;;;12.93;5.53;;;22.90;99.90;;;;;;4914293;29;20861;-47
2022/03/18 12:20:25;;;;;;;10.87;5.00;;;23.00;99.90;;;;;;4914190;29;20463;-48
2022/03/18 12:22:53;;;;;;;10.17;5.07;;;23.30;99.90;;;;;;4913867;29;20427;-47
2022/03/18 12:25:23;;;;;;;13.43;5.10;;;23.60;99.90;;;;;;4914695;29;20502;-48
2022/03/18 12:27:50;;;;;;;14.40;4.17;;;23.70;99.90;;;;;;4913732;29;20439;-47
2022/03/18 12:30:25;;;;;;;9.37;3.47;;;23.70;99.90;;;;;;4914691;29;20460;-47
2022/03/18 12:33:00;;;;;;;8.23;3.67;;;23.80;99.90;;;;;;4891568;29;20466;-48
2022/03/18 12:35:28;;;;;;;7.43;3.70;;;23.80;99.90;;;;;;4918738;29;20446;-49
2022/03/18 12:38:08;;;;;;;11.60;3.50;;;23.70;99.90;;;;;;4899763;29;20435;-48
2022/03/18 12:40:36;;;;;;;9.25;3.80;;;23.20;99.90;;;;;;4914054;29;20442;-48
2022/03/18 12:43:03;;;;;;;11.70;4.70;;;22.70;99.90;;;;;;4912066;29;20475;-47
2022/03/18 12:45:44;;;;;;;12.10;4.60;;;22.60;99.90;;;;;;4910905;29;20475;-48
2022/03/18 12:48:15;;;;;;;6.93;3.37;;;22.50;99.90;;;;;;4909866;29;20443;-48
2022/03/18 12:50:52;;;;;;;12.53;4.23;;;22.50;99.90;;;;;;4920953;29;20457;-48
2022/03/18 12:53:22;;;;;;;9.23;4.27;;;21.90;99.90;;;;;;4914163;29;20576;-47
2022/03/18 12:55:59;;;;;;;13.23;5.30;;;21.80;99.90;;;;;;4911791;29;20486;-47
2022/03/18 12:58:28;;;;;;;12.00;4.80;;;21.90;99.90;;;;;;4914833;29;20494;-48
2022/03/18 13:00:59;;;;;;;16.10;6.10;;;22.40;99.90;;;;;;4914401;29;20557;-48
2022/03/18 13:03:30;;;;;;;13.13;5.63;;;22.70;99.90;;;;;;4914482;29;20423;-48
2022/03/18 13:06:11;;;;;;;9.00;4.90;;;22.00;99.90;;;;;;4909928;29;20443;-47
2022/03/18 13:08:37;;;;;;;15.63;6.50;;;21.20;99.90;;;;;;4897949;29;20549;-47
2022/03/18 13:11:05;;;;;;;17.37;7.10;;;20.30;99.90;;;;;;4908194;29;20513;-47
2022/03/18 13:13:32;;;;;;;14.13;6.33;;;18.70;99.90;;;;;;4914150;29;20661;-48
2022/03/18 13:16:03;;;;;;;18.23;7.30;;;17.60;99.90;;;;;;4909539;29;20435;-48